sensor_id;sensor_type;location;lat;lon;timestamp;P1;durP1;ratioP1;P2;durP2;ratioP2
67092;SDS011;54011;50.772;7.730;2022-11-18T00:00:50;8.57;;;3.50;;
67092;SDS011;54011;50.772;7.730;2022-11-18T00:03:16;10.13;;;3.40;;
67092;SDS011;54011;50.772;7.730;2022-11-18T00:05:41;12.27;;;3.05;;
67092;SDS011;54011;50.772;7.730;2022-11-18T00:08:07;11.95;;;3.00;;
67092;SDS011;54011;50.772;7.730;2022-11-18T00:10:32;8.43;;;2.90;;
67092;SDS011;54011;50.772;7.730;2022-11-18T00:12:58;12.70;;;3.38;;
67092;SDS011;54011;50.772;7.730;2022-11-18T00:15:42;9.02;;;3.63;;
67092;SDS011;54011;50.772;7.730;2022-11-18T00:18:07;9.27;;;3.35;;
67092;SDS011;54011;50.772;7.730;2022-11-18T00:20:33;10.88;;;3.88;;
67092;SDS011;54011;50.772;7.730;2022-11-18T00:22:59;8.25;;;3.88;;
67092;SDS011;54011;50.772;7.730;2022-11-18T00:25:24;12.40;;;4.25;;
67092;SDS011;54011;50.772;7.730;2022-11-18T00:27:50;10.75;;;4.13;;
67092;SDS011;54011;50.772;7.730;2022-11-18T00:30:16;11.10;;;4.28;;
67092;SDS011;54011;50.772;7.730;2022-11-18T00:32:41;10.60;;;4.65;;
67092;SDS011;54011;50.772;7.730;2022-11-18T00:35:07;10.57;;;4.40;;
67092;SDS011;54011;50.772;7.730;2022-11-18T00:37:33;12.25;;;4.82;;
67092;SDS011;54011;50.772;7.730;2022-11-18T00:39:58;11.13;;;4.53;;
67092;SDS011;54011;50.772;7.730;2022-11-18T00:42:23;11.40;;;4.65;;
67092;SDS011;54011;50.772;7.730;2022-11-18T00:45:10;13.10;;;4.90;;
67092;SDS011;54011;50.772;7.730;2022-11-18T00:47:36;112.10;;;7.00;;
67092;SDS011;54011;50.772;7.730;2022-11-18T00:50:01;24.25;;;4.25;;
67092;SDS011;54011;50.772;7.730;2022-11-18T00:52:27;12.15;;;4.03;;
67092;SDS011;54011;50.772;7.730;2022-11-18T00:54:52;16.80;;;3.97;;
67092;SDS011;54011;50.772;7.730;2022-11-18T00:57:17;12.23;;;3.70;;
67092;SDS011;54011;50.772;7.730;2022-11-18T00:59:43;10.45;;;4.43;;
67092;SDS011;54011;50.772;7.730;2022-11-18T01:02:08;10.48;;;4.20;;
67092;SDS011;54011;50.772;7.730;2022-11-18T01:04:33;10.63;;;4.70;;
67092;SDS011;54011;50.772;7.730;2022-11-18T01:06:59;10.43;;;4.20;;
67092;SDS011;54011;50.772;7.730;2022-11-18T01:09:24;10.63;;;4.30;;
67092;SDS011;54011;50.772;7.730;2022-11-18T01:11:50;8.13;;;4.30;;
67092;SDS011;54011;50.772;7.730;2022-11-18T01:14:34;12.77;;;4.05;;
67092;SDS011;54011;50.772;7.730;2022-11-18T01:16:59;9.55;;;3.65;;
67092;SDS011;54011;50.772;7.730;2022-11-18T01:19:25;10.52;;;3.67;;
67092;SDS011;54011;50.772;7.730;2022-11-18T01:21:50;10.65;;;3.85;;
67092;SDS011;54011;50.772;7.730;2022-11-18T01:24:16;10.38;;;3.92;;
67092;SDS011;54011;50.772;7.730;2022-11-18T01:26:42;9.80;;;3.85;;
67092;SDS011;54011;50.772;7.730;2022-11-18T01:29:07;12.98;;;3.92;;
67092;SDS011;54011;50.772;7.730;2022-11-18T01:31:33;9.98;;;4.38;;
67092;SDS011;54011;50.772;7.730;2022-11-18T01:33:58;8.45;;;3.80;;
67092;SDS011;54011;50.772;7.730;2022-11-18T01:36:24;6.35;;;3.38;;
67092;SDS011;54011;50.772;7.730;2022-11-18T01:38:51;11.45;;;4.28;;
67092;SDS011;54011;50.772;7.730;2022-11-18T01:41:20;15.10;;;3.95;;
67092;SDS011;54011;50.772;7.730;2022-11-18T01:43:55;11.35;;;4.18;;
67092;SDS011;54011;50.772;7.730;2022-11-18T01:46:23;14.18;;;4.35;;
67092;SDS011;54011;50.772;7.730;2022-11-18T01:48:52;10.73;;;3.33;;
67092;SDS011;54011;50.772;7.730;2022-11-18T01:51:28;13.98;;;3.80;;
67092;SDS011;54011;50.772;7.730;2022-11-18T01:54:31;342.27;;;10.10;;
67092;SDS011;54011;50.772;7.730;2022-11-18T01:56:56;172.65;;;4.93;;
67092;SDS011;54011;50.772;7.730;2022-11-18T01:59:25;12.75;;;2.13;;
67092;SDS011;54011;50.772;7.730;2022-11-18T02:01:54;10.98;;;2.83;;
67092;SDS011;54011;50.772;7.730;2022-11-18T02:04:20;7.57;;;2.90;;
67092;SDS011;54011;50.772;7.730;2022-11-18T02:06:47;10.82;;;3.20;;
67092;SDS011;54011;50.772;7.730;2022-11-18T02:09:14;7.78;;;2.83;;
67092;SDS011;54011;50.772;7.730;2022-11-18T02:11:39;8.02;;;2.42;;
67092;SDS011;54011;50.772;7.730;2022-11-18T02:14:23;8.60;;;2.70;;
67092;SDS011;54011;50.772;7.730;2022-11-18T02:25:58;9.13;;;3.28;;
67092;SDS011;54011;50.772;7.730;2022-11-18T02:31:32;9.00;;;3.10;;
67092;SDS011;54011;50.772;7.730;2022-11-18T02:34:17;11.77;;;3.30;;
67092;SDS011;54011;50.772;7.730;2022-11-18T02:36:54;11.48;;;3.40;;
67092;SDS011;54011;50.772;7.730;2022-11-18T02:39:30;8.27;;;3.13;;
67092;SDS011;54011;50.772;7.730;2022-11-18T02:42:34;9.98;;;2.88;;
67092;SDS011;54011;50.772;7.730;2022-11-18T02:45:03;8.23;;;3.28;;
67092;SDS011;54011;50.772;7.730;2022-11-18T02:47:32;11.98;;;3.05;;
67092;SDS011;54011;50.772;7.730;2022-11-18T02:50:02;14.38;;;3.15;;
67092;SDS011;54011;50.772;7.730;2022-11-18T02:52:33;8.13;;;2.78;;
67092;SDS011;54011;50.772;7.730;2022-11-18T02:55:01;5.93;;;2.63;;
67092;SDS011;54011;50.772;7.730;2022-11-18T02:57:31;6.50;;;2.93;;
67092;SDS011;54011;50.772;7.730;2022-11-18T02:59:59;6.15;;;2.70;;
67092;SDS011;54011;50.772;7.730;2022-11-18T03:02:24;10.55;;;2.95;;
67092;SDS011;54011;50.772;7.730;2022-11-18T03:04:51;8.18;;;2.40;;
67092;SDS011;54011;50.772;7.730;2022-11-18T03:07:24;6.15;;;2.55;;
67092;SDS011;54011;50.772;7.730;2022-11-18T03:09:54;7.63;;;2.05;;
67092;SDS011;54011;50.772;7.730;2022-11-18T03:15:23;8.38;;;2.38;;
67092;SDS011;54011;50.772;7.730;2022-11-18T03:20:38;9.18;;;3.10;;
67092;SDS011;54011;50.772;7.730;2022-11-18T03:25:51;9.35;;;3.42;;
67092;SDS011;54011;50.772;7.730;2022-11-18T03:30:57;9.82;;;3.45;;
67092;SDS011;54011;50.772;7.730;2022-11-18T03:33:34;6.80;;;3.50;;
67092;SDS011;54011;50.772;7.730;2022-11-18T03:36:05;8.93;;;3.20;;
67092;SDS011;54011;50.772;7.730;2022-11-18T03:38:35;10.98;;;3.40;;
67092;SDS011;54011;50.772;7.730;2022-11-18T03:41:05;9.80;;;3.67;;
67092;SDS011;54011;50.772;7.730;2022-11-18T03:43:36;7.82;;;3.47;;
67092;SDS011;54011;50.772;7.730;2022-11-18T03:46:07;7.30;;;3.47;;
67092;SDS011;54011;50.772;7.730;2022-11-18T03:48:40;8.75;;;3.88;;
67092;SDS011;54011;50.772;7.730;2022-11-18T03:51:09;12.60;;;4.00;;
67092;SDS011;54011;50.772;7.730;2022-11-18T03:53:40;7.28;;;3.50;;
67092;SDS011;54011;50.772;7.730;2022-11-18T03:56:13;6.90;;;3.30;;
67092;SDS011;54011;50.772;7.730;2022-11-18T03:58:42;9.32;;;3.63;;
67092;SDS011;54011;50.772;7.730;2022-11-18T04:01:39;10.27;;;4.45;;
67092;SDS011;54011;50.772;7.730;2022-11-18T04:04:10;8.85;;;4.25;;
67092;SDS011;54011;50.772;7.730;2022-11-18T04:06:45;10.10;;;4.05;;
67092;SDS011;54011;50.772;7.730;2022-11-18T04:09:17;8.63;;;4.10;;
67092;SDS011;54011;50.772;7.730;2022-11-18T04:11:49;20.42;;;3.90;;
67092;SDS011;54011;50.772;7.730;2022-11-18T04:14:28;14.15;;;3.33;;
67092;SDS011;54011;50.772;7.730;2022-11-18T04:16:56;266.33;;;8.73;;
67092;SDS011;54011;50.772;7.730;2022-11-18T04:19:23;283.83;;;8.45;;
67092;SDS011;54011;50.772;7.730;2022-11-18T04:21:49;167.05;;;7.65;;
67092;SDS011;54011;50.772;7.730;2022-11-18T04:24:15;140.63;;;6.65;;
67092;SDS011;54011;50.772;7.730;2022-11-18T04:26:42;118.68;;;6.32;;
67092;SDS011;54011;50.772;7.730;2022-11-18T04:29:08;23.67;;;4.90;;
67092;SDS011;54011;50.772;7.730;2022-11-18T04:31:33;23.60;;;4.85;;
67092;SDS011;54011;50.772;7.730;2022-11-18T04:33:59;41.22;;;5.18;;
67092;SDS011;54011;50.772;7.730;2022-11-18T04:36:24;21.00;;;4.82;;
67092;SDS011;54011;50.772;7.730;2022-11-18T04:38:49;19.98;;;4.65;;
67092;SDS011;54011;50.772;7.730;2022-11-18T04:41:15;9.82;;;4.43;;
67092;SDS011;54011;50.772;7.730;2022-11-18T04:43:41;7.93;;;4.38;;
67092;SDS011;54011;50.772;7.730;2022-11-18T04:46:07;11.65;;;4.82;;
67092;SDS011;54011;50.772;7.730;2022-11-18T04:48:32;9.43;;;4.47;;
67092;SDS011;54011;50.772;7.730;2022-11-18T04:51:01;10.15;;;5.45;;
67092;SDS011;54011;50.772;7.730;2022-11-18T04:53:30;9.20;;;4.82;;
67092;SDS011;54011;50.772;7.730;2022-11-18T04:55:55;12.10;;;5.28;;
67092;SDS011;54011;50.772;7.730;2022-11-18T04:58:21;10.75;;;5.40;;
67092;SDS011;54011;50.772;7.730;2022-11-18T05:00:46;292.60;;;10.85;;
67092;SDS011;54011;50.772;7.730;2022-11-18T05:03:15;274.75;;;9.85;;
67092;SDS011;54011;50.772;7.730;2022-11-18T05:05:41;38.67;;;5.60;;
67092;SDS011;54011;50.772;7.730;2022-11-18T05:08:06;63.50;;;5.97;;
67092;SDS011;54011;50.772;7.730;2022-11-18T05:10:31;88.78;;;5.80;;
67092;SDS011;54011;50.772;7.730;2022-11-18T05:12:57;8.55;;;4.20;;
67092;SDS011;54011;50.772;7.730;2022-11-18T05:15:22;28.50;;;4.43;;
67092;SDS011;54011;50.772;7.730;2022-11-18T05:17:51;9.18;;;4.05;;
67092;SDS011;54011;50.772;7.730;2022-11-18T05:20:17;10.50;;;4.53;;
67092;SDS011;54011;50.772;7.730;2022-11-18T05:22:45;8.38;;;4.28;;
67092;SDS011;54011;50.772;7.730;2022-11-18T05:25:11;12.00;;;4.55;;
67092;SDS011;54011;50.772;7.730;2022-11-18T05:27:38;9.93;;;5.15;;
67092;SDS011;54011;50.772;7.730;2022-11-18T05:30:04;10.73;;;6.85;;
67092;SDS011;54011;50.772;7.730;2022-11-18T05:32:32;12.52;;;7.32;;
67092;SDS011;54011;50.772;7.730;2022-11-18T05:34:57;96.97;;;9.50;;
67092;SDS011;54011;50.772;7.730;2022-11-18T05:37:23;13.88;;;6.65;;
67092;SDS011;54011;50.772;7.730;2022-11-18T05:39:48;12.30;;;6.03;;
67092;SDS011;54011;50.772;7.730;2022-11-18T05:42:13;11.13;;;6.88;;
67092;SDS011;54011;50.772;7.730;2022-11-18T05:44:58;14.00;;;5.88;;
67092;SDS011;54011;50.772;7.730;2022-11-18T05:47:23;60.50;;;10.10;;
67092;SDS011;54011;50.772;7.730;2022-11-18T05:49:49;19.77;;;9.40;;
67092;SDS011;54011;50.772;7.730;2022-11-18T05:52:14;16.35;;;9.07;;
67092;SDS011;54011;50.772;7.730;2022-11-18T05:54:44;13.75;;;8.10;;
67092;SDS011;54011;50.772;7.730;2022-11-18T05:57:13;17.40;;;8.82;;
67092;SDS011;54011;50.772;7.730;2022-11-18T05:59:39;16.30;;;8.88;;
67092;SDS011;54011;50.772;7.730;2022-11-18T06:02:05;19.63;;;8.93;;
67092;SDS011;54011;50.772;7.730;2022-11-18T06:04:41;18.92;;;8.95;;
67092;SDS011;54011;50.772;7.730;2022-11-18T06:07:16;11.68;;;6.75;;
67092;SDS011;54011;50.772;7.730;2022-11-18T06:09:49;11.80;;;5.90;;
67092;SDS011;54011;50.772;7.730;2022-11-18T06:12:19;17.20;;;5.80;;
67092;SDS011;54011;50.772;7.730;2022-11-18T06:14:51;16.92;;;6.78;;
67092;SDS011;54011;50.772;7.730;2022-11-18T06:17:48;14.38;;;6.75;;
67092;SDS011;54011;50.772;7.730;2022-11-18T06:20:21;17.55;;;6.68;;
67092;SDS011;54011;50.772;7.730;2022-11-18T06:22:49;14.23;;;6.57;;
67092;SDS011;54011;50.772;7.730;2022-11-18T06:25:19;14.95;;;6.43;;
67092;SDS011;54011;50.772;7.730;2022-11-18T06:27:45;19.65;;;6.82;;
67092;SDS011;54011;50.772;7.730;2022-11-18T06:30:13;12.07;;;6.88;;
67092;SDS011;54011;50.772;7.730;2022-11-18T06:32:39;16.33;;;7.88;;
67092;SDS011;54011;50.772;7.730;2022-11-18T06:35:04;18.90;;;8.43;;
67092;SDS011;54011;50.772;7.730;2022-11-18T06:37:30;21.13;;;8.73;;
67092;SDS011;54011;50.772;7.730;2022-11-18T06:39:56;15.32;;;8.07;;
67092;SDS011;54011;50.772;7.730;2022-11-18T06:42:22;14.15;;;6.82;;
67092;SDS011;54011;50.772;7.730;2022-11-18T06:45:06;12.73;;;7.00;;
67092;SDS011;54011;50.772;7.730;2022-11-18T06:47:32;20.67;;;9.05;;
67092;SDS011;54011;50.772;7.730;2022-11-18T06:49:59;56.75;;;13.10;;
67092;SDS011;54011;50.772;7.730;2022-11-18T06:52:24;17.58;;;9.77;;
67092;SDS011;54011;50.772;7.730;2022-11-18T06:54:49;19.67;;;8.85;;
67092;SDS011;54011;50.772;7.730;2022-11-18T06:57:15;25.95;;;16.42;;
67092;SDS011;54011;50.772;7.730;2022-11-18T06:59:40;25.02;;;14.13;;
67092;SDS011;54011;50.772;7.730;2022-11-18T07:02:06;29.05;;;14.48;;
67092;SDS011;54011;50.772;7.730;2022-11-18T07:04:31;21.90;;;10.75;;
67092;SDS011;54011;50.772;7.730;2022-11-18T07:06:58;15.30;;;6.55;;
67092;SDS011;54011;50.772;7.730;2022-11-18T07:09:24;17.23;;;9.85;;
67092;SDS011;54011;50.772;7.730;2022-11-18T07:11:50;39.03;;;14.98;;
67092;SDS011;54011;50.772;7.730;2022-11-18T07:14:15;16.35;;;9.98;;
67092;SDS011;54011;50.772;7.730;2022-11-18T07:16:41;17.08;;;9.70;;
67092;SDS011;54011;50.772;7.730;2022-11-18T07:19:08;16.85;;;8.77;;
67092;SDS011;54011;50.772;7.730;2022-11-18T07:21:36;17.55;;;6.25;;
67092;SDS011;54011;50.772;7.730;2022-11-18T07:24:06;19.55;;;6.57;;
67092;SDS011;54011;50.772;7.730;2022-11-18T07:26:34;16.08;;;5.50;;
67092;SDS011;54011;50.772;7.730;2022-11-18T07:29:00;259.55;;;10.60;;
67092;SDS011;54011;50.772;7.730;2022-11-18T07:31:25;264.75;;;11.07;;
67092;SDS011;54011;50.772;7.730;2022-11-18T07:33:51;36.47;;;6.10;;
67092;SDS011;54011;50.772;7.730;2022-11-18T07:36:20;18.60;;;7.13;;
67092;SDS011;54011;50.772;7.730;2022-11-18T07:38:48;46.67;;;7.20;;
67092;SDS011;54011;50.772;7.730;2022-11-18T07:41:14;21.73;;;6.35;;
67092;SDS011;54011;50.772;7.730;2022-11-18T07:43:47;14.68;;;8.20;;
67092;SDS011;54011;50.772;7.730;2022-11-18T07:46:15;15.32;;;7.60;;
67092;SDS011;54011;50.772;7.730;2022-11-18T07:48:41;12.38;;;6.97;;
67092;SDS011;54011;50.772;7.730;2022-11-18T07:51:08;17.30;;;9.40;;
67092;SDS011;54011;50.772;7.730;2022-11-18T07:53:34;13.55;;;7.18;;
67092;SDS011;54011;50.772;7.730;2022-11-18T07:56:00;12.70;;;7.10;;
67092;SDS011;54011;50.772;7.730;2022-11-18T07:58:26;15.73;;;7.00;;
67092;SDS011;54011;50.772;7.730;2022-11-18T08:00:52;13.75;;;6.47;;
67092;SDS011;54011;50.772;7.730;2022-11-18T08:03:17;21.38;;;6.65;;
67092;SDS011;54011;50.772;7.730;2022-11-18T08:05:43;27.20;;;5.28;;
67092;SDS011;54011;50.772;7.730;2022-11-18T08:08:08;15.30;;;7.60;;
67092;SDS011;54011;50.772;7.730;2022-11-18T08:10:36;20.98;;;9.60;;
67092;SDS011;54011;50.772;7.730;2022-11-18T08:13:01;13.30;;;8.02;;
67092;SDS011;54011;50.772;7.730;2022-11-18T08:15:27;13.60;;;7.63;;
67092;SDS011;54011;50.772;7.730;2022-11-18T08:17:53;13.43;;;7.40;;
67092;SDS011;54011;50.772;7.730;2022-11-18T08:20:18;17.33;;;10.18;;
67092;SDS011;54011;50.772;7.730;2022-11-18T08:22:44;15.15;;;7.70;;
67092;SDS011;54011;50.772;7.730;2022-11-18T08:25:09;17.60;;;7.70;;
67092;SDS011;54011;50.772;7.730;2022-11-18T08:27:35;13.00;;;7.65;;
67092;SDS011;54011;50.772;7.730;2022-11-18T08:30:00;25.65;;;7.20;;
67092;SDS011;54011;50.772;7.730;2022-11-18T08:32:26;16.38;;;5.30;;
67092;SDS011;54011;50.772;7.730;2022-11-18T08:34:52;114.05;;;5.70;;
67092;SDS011;54011;50.772;7.730;2022-11-18T08:37:17;147.93;;;6.65;;
67092;SDS011;54011;50.772;7.730;2022-11-18T08:39:43;24.58;;;4.25;;
67092;SDS011;54011;50.772;7.730;2022-11-18T08:42:08;198.05;;;7.47;;
67092;SDS011;54011;50.772;7.730;2022-11-18T08:44:34;511.00;;;13.75;;
67092;SDS011;54011;50.772;7.730;2022-11-18T08:47:00;154.13;;;7.13;;
67092;SDS011;54011;50.772;7.730;2022-11-18T08:49:26;164.63;;;6.65;;
67092;SDS011;54011;50.772;7.730;2022-11-18T08:51:51;8.50;;;4.00;;
67092;SDS011;54011;50.772;7.730;2022-11-18T08:54:17;10.07;;;4.32;;
67092;SDS011;54011;50.772;7.730;2022-11-18T08:56:45;10.52;;;4.20;;
67092;SDS011;54011;50.772;7.730;2022-11-18T08:59:10;7.40;;;3.80;;
67092;SDS011;54011;50.772;7.730;2022-11-18T09:01:38;11.45;;;3.80;;
67092;SDS011;54011;50.772;7.730;2022-11-18T09:04:05;9.85;;;4.22;;
67092;SDS011;54011;50.772;7.730;2022-11-18T09:06:31;11.52;;;4.10;;
67092;SDS011;54011;50.772;7.730;2022-11-18T09:08:56;11.57;;;3.97;;
67092;SDS011;54011;50.772;7.730;2022-11-18T09:11:25;8.43;;;4.07;;
67092;SDS011;54011;50.772;7.730;2022-11-18T09:13:55;9.50;;;4.05;;
67092;SDS011;54011;50.772;7.730;2022-11-18T09:16:22;11.02;;;4.60;;
67092;SDS011;54011;50.772;7.730;2022-11-18T09:18:50;12.13;;;4.63;;
67092;SDS011;54011;50.772;7.730;2022-11-18T09:21:15;8.82;;;3.97;;
67092;SDS011;54011;50.772;7.730;2022-11-18T09:23:41;14.35;;;4.60;;
67092;SDS011;54011;50.772;7.730;2022-11-18T09:26:08;10.07;;;4.50;;
67092;SDS011;54011;50.772;7.730;2022-11-18T09:28:35;14.65;;;4.60;;
67092;SDS011;54011;50.772;7.730;2022-11-18T09:31:08;12.05;;;4.65;;
67092;SDS011;54011;50.772;7.730;2022-11-18T09:33:35;11.15;;;4.57;;
67092;SDS011;54011;50.772;7.730;2022-11-18T09:36:02;10.60;;;4.43;;
67092;SDS011;54011;50.772;7.730;2022-11-18T09:38:28;14.05;;;5.28;;
67092;SDS011;54011;50.772;7.730;2022-11-18T09:43:47;11.15;;;5.05;;
67092;SDS011;54011;50.772;7.730;2022-11-18T09:46:39;63.90;;;6.97;;
67092;SDS011;54011;50.772;7.730;2022-11-18T09:49:14;42.67;;;7.10;;
67092;SDS011;54011;50.772;7.730;2022-11-18T09:51:51;12.82;;;6.38;;
67092;SDS011;54011;50.772;7.730;2022-11-18T09:56:45;14.05;;;6.18;;
67092;SDS011;54011;50.772;7.730;2022-11-18T09:59:12;10.95;;;6.28;;
67092;SDS011;54011;50.772;7.730;2022-11-18T10:01:39;12.68;;;5.10;;
67092;SDS011;54011;50.772;7.730;2022-11-18T10:04:11;8.93;;;4.90;;
67092;SDS011;54011;50.772;7.730;2022-11-18T10:06:38;10.95;;;5.43;;
67092;SDS011;54011;50.772;7.730;2022-11-18T10:11:57;9.48;;;4.57;;
67092;SDS011;54011;50.772;7.730;2022-11-18T10:14:44;10.05;;;5.22;;
67092;SDS011;54011;50.772;7.730;2022-11-18T10:20:31;10.15;;;5.28;;
67092;SDS011;54011;50.772;7.730;2022-11-18T10:23:11;10.38;;;5.40;;
67092;SDS011;54011;50.772;7.730;2022-11-18T10:25:40;8.50;;;4.25;;
67092;SDS011;54011;50.772;7.730;2022-11-18T10:28:17;8.52;;;5.03;;
67092;SDS011;54011;50.772;7.730;2022-11-18T10:30:46;10.17;;;4.83;;
67092;SDS011;54011;50.772;7.730;2022-11-18T10:33:23;11.35;;;4.63;;
67092;SDS011;54011;50.772;7.730;2022-11-18T10:36:06;9.82;;;3.80;;
67092;SDS011;54011;50.772;7.730;2022-11-18T10:38:34;8.73;;;4.38;;
67092;SDS011;54011;50.772;7.730;2022-11-18T10:41:06;9.13;;;3.92;;
67092;SDS011;54011;50.772;7.730;2022-11-18T10:46:28;10.90;;;4.45;;
67092;SDS011;54011;50.772;7.730;2022-11-18T10:51:37;10.55;;;4.18;;
67092;SDS011;54011;50.772;7.730;2022-11-18T10:59:49;12.75;;;4.63;;
67092;SDS011;54011;50.772;7.730;2022-11-18T11:02:26;9.45;;;4.72;;
67092;SDS011;54011;50.772;7.730;2022-11-18T11:04:55;11.35;;;5.05;;
67092;SDS011;54011;50.772;7.730;2022-11-18T11:07:39;9.25;;;4.13;;
67092;SDS011;54011;50.772;7.730;2022-11-18T11:12:33;10.15;;;4.03;;
67092;SDS011;54011;50.772;7.730;2022-11-18T11:17:35;9.68;;;4.20;;
67092;SDS011;54011;50.772;7.730;2022-11-18T11:20:16;13.48;;;4.30;;
67092;SDS011;54011;50.772;7.730;2022-11-18T11:22:45;11.05;;;4.18;;
67092;SDS011;54011;50.772;7.730;2022-11-18T11:25:14;8.23;;;3.40;;
67092;SDS011;54011;50.772;7.730;2022-11-18T11:30:19;8.68;;;3.13;;
67092;SDS011;54011;50.772;7.730;2022-11-18T11:32:59;8.40;;;3.65;;
67092;SDS011;54011;50.772;7.730;2022-11-18T11:35:41;6.85;;;3.10;;
67092;SDS011;54011;50.772;7.730;2022-11-18T11:38:14;8.63;;;2.92;;
67092;SDS011;54011;50.772;7.730;2022-11-18T11:41:21;8.25;;;2.92;;
67092;SDS011;54011;50.772;7.730;2022-11-18T11:44:11;8.68;;;3.35;;
67092;SDS011;54011;50.772;7.730;2022-11-18T11:49:17;7.15;;;2.35;;
67092;SDS011;54011;50.772;7.730;2022-11-18T11:51:48;9.38;;;2.60;;
67092;SDS011;54011;50.772;7.730;2022-11-18T11:57:17;8.35;;;2.58;;
67092;SDS011;54011;50.772;7.730;2022-11-18T12:00:11;7.47;;;2.22;;
67092;SDS011;54011;50.772;7.730;2022-11-18T12:05:32;8.23;;;2.55;;
67092;SDS011;54011;50.772;7.730;2022-11-18T12:08:45;14.50;;;6.40;;
67092;SDS011;54011;50.772;7.730;2022-11-18T12:11:07;6.90;;;3.15;;
67092;SDS011;54011;50.772;7.730;2022-11-18T12:13:42;8.88;;;2.35;;
67092;SDS011;54011;50.772;7.730;2022-11-18T12:18:52;7.10;;;2.10;;
67092;SDS011;54011;50.772;7.730;2022-11-18T12:21:50;9.60;;;2.00;;
67092;SDS011;54011;50.772;7.730;2022-11-18T12:26:41;5.45;;;1.80;;
67092;SDS011;54011;50.772;7.730;2022-11-18T12:31:45;6.75;;;1.73;;
67092;SDS011;54011;50.772;7.730;2022-11-18T12:36:50;10.05;;;1.70;;
67092;SDS011;54011;50.772;7.730;2022-11-18T12:41:57;4.60;;;1.58;;
67092;SDS011;54011;50.772;7.730;2022-11-18T12:44:44;5.40;;;1.45;;
67092;SDS011;54011;50.772;7.730;2022-11-18T12:47:14;5.40;;;1.60;;
67092;SDS011;54011;50.772;7.730;2022-11-18T12:54:53;5.00;;;1.48;;
67092;SDS011;54011;50.772;7.730;2022-11-18T12:57:26;5.75;;;1.65;;
67092;SDS011;54011;50.772;7.730;2022-11-18T12:59:53;5.05;;;1.55;;
67092;SDS011;54011;50.772;7.730;2022-11-18T13:02:20;8.52;;;2.28;;
67092;SDS011;54011;50.772;7.730;2022-11-18T13:07:32;5.45;;;1.40;;
67092;SDS011;54011;50.772;7.730;2022-11-18T13:10:25;7.75;;;1.42;;
67092;SDS011;54011;50.772;7.730;2022-11-18T13:12:53;6.88;;;1.50;;
67092;SDS011;54011;50.772;7.730;2022-11-18T13:15:19;6.63;;;1.63;;
67092;SDS011;54011;50.772;7.730;2022-11-18T13:18:10;6.25;;;1.40;;
67092;SDS011;54011;50.772;7.730;2022-11-18T13:20:39;7.05;;;1.40;;
67092;SDS011;54011;50.772;7.730;2022-11-18T13:25:54;6.68;;;1.50;;
67092;SDS011;54011;50.772;7.730;2022-11-18T13:28:33;6.45;;;1.52;;
67092;SDS011;54011;50.772;7.730;2022-11-18T13:31:12;5.85;;;1.65;;
67092;SDS011;54011;50.772;7.730;2022-11-18T13:33:39;6.03;;;1.90;;
67092;SDS011;54011;50.772;7.730;2022-11-18T13:39:06;7.57;;;1.60;;
67092;SDS011;54011;50.772;7.730;2022-11-18T13:41:40;6.10;;;1.58;;
67092;SDS011;54011;50.772;7.730;2022-11-18T13:44:22;5.07;;;1.80;;
67092;SDS011;54011;50.772;7.730;2022-11-18T13:46:50;8.15;;;1.83;;
67092;SDS011;54011;50.772;7.730;2022-11-18T13:49:31;6.78;;;1.63;;
67092;SDS011;54011;50.772;7.730;2022-11-18T13:52:02;5.78;;;1.60;;
67092;SDS011;54011;50.772;7.730;2022-11-18T13:54:28;7.35;;;1.50;;
67092;SDS011;54011;50.772;7.730;2022-11-18T13:56:54;8.80;;;1.95;;
67092;SDS011;54011;50.772;7.730;2022-11-18T13:59:21;7.18;;;1.52;;
67092;SDS011;54011;50.772;7.730;2022-11-18T14:01:52;4.32;;;1.30;;
67092;SDS011;54011;50.772;7.730;2022-11-18T14:04:20;9.02;;;1.90;;
67092;SDS011;54011;50.772;7.730;2022-11-18T14:06:47;7.13;;;1.63;;
67092;SDS011;54011;50.772;7.730;2022-11-18T14:09:15;6.18;;;1.60;;
67092;SDS011;54011;50.772;7.730;2022-11-18T14:12:20;4.82;;;1.50;;
67092;SDS011;54011;50.772;7.730;2022-11-18T14:14:48;5.60;;;1.63;;
67092;SDS011;54011;50.772;7.730;2022-11-18T14:17:15;5.53;;;1.23;;
67092;SDS011;54011;50.772;7.730;2022-11-18T14:19:52;10.07;;;1.60;;
67092;SDS011;54011;50.772;7.730;2022-11-18T14:22:22;6.15;;;1.52;;
67092;SDS011;54011;50.772;7.730;2022-11-18T14:38:29;11.73;;;1.92;;
67092;SDS011;54011;50.772;7.730;2022-11-18T14:41:07;9.68;;;1.63;;
67092;SDS011;54011;50.772;7.730;2022-11-18T14:43:35;5.32;;;1.55;;
67092;SDS011;54011;50.772;7.730;2022-11-18T14:46:05;7.20;;;1.60;;
67092;SDS011;54011;50.772;7.730;2022-11-18T14:48:37;5.00;;;1.73;;
67092;SDS011;54011;50.772;7.730;2022-11-18T14:51:04;7.70;;;1.70;;
67092;SDS011;54011;50.772;7.730;2022-11-18T14:53:30;5.45;;;1.60;;
67092;SDS011;54011;50.772;7.730;2022-11-18T14:55:56;8.50;;;1.83;;
67092;SDS011;54011;50.772;7.730;2022-11-18T14:58:26;10.07;;;1.95;;
67092;SDS011;54011;50.772;7.730;2022-11-18T15:00:51;7.38;;;1.42;;
67092;SDS011;54011;50.772;7.730;2022-11-18T15:03:17;10.82;;;2.00;;
67092;SDS011;54011;50.772;7.730;2022-11-18T15:05:42;13.63;;;1.80;;
67092;SDS011;54011;50.772;7.730;2022-11-18T15:08:08;10.80;;;1.48;;
67092;SDS011;54011;50.772;7.730;2022-11-18T15:10:33;5.53;;;1.10;;
67092;SDS011;54011;50.772;7.730;2022-11-18T15:12:59;4.03;;;1.08;;
67092;SDS011;54011;50.772;7.730;2022-11-18T15:15:33;5.75;;;1.60;;
67092;SDS011;54011;50.772;7.730;2022-11-18T15:17:59;2.50;;;1.00;;
67092;SDS011;54011;50.772;7.730;2022-11-18T15:20:26;1.48;;;0.60;;
67092;SDS011;54011;50.772;7.730;2022-11-18T15:22:51;2.80;;;0.90;;
67092;SDS011;54011;50.772;7.730;2022-11-18T15:25:17;2.05;;;0.73;;
67092;SDS011;54011;50.772;7.730;2022-11-18T15:27:42;3.58;;;0.90;;
67092;SDS011;54011;50.772;7.730;2022-11-18T15:30:10;3.95;;;0.82;;
67092;SDS011;54011;50.772;7.730;2022-11-18T15:32:37;1.08;;;0.55;;
67092;SDS011;54011;50.772;7.730;2022-11-18T15:35:03;5.05;;;0.70;;
67092;SDS011;54011;50.772;7.730;2022-11-18T15:37:29;3.88;;;0.90;;
67092;SDS011;54011;50.772;7.730;2022-11-18T15:39:54;3.20;;;0.90;;
67092;SDS011;54011;50.772;7.730;2022-11-18T15:42:19;3.08;;;0.77;;
67092;SDS011;54011;50.772;7.730;2022-11-18T15:44:45;3.08;;;0.90;;
67092;SDS011;54011;50.772;7.730;2022-11-18T15:47:11;13.48;;;3.20;;
67092;SDS011;54011;50.772;7.730;2022-11-18T15:49:36;4.25;;;1.08;;
67092;SDS011;54011;50.772;7.730;2022-11-18T15:52:07;4.95;;;1.08;;
67092;SDS011;54011;50.772;7.730;2022-11-18T15:54:34;5.00;;;1.75;;
67092;SDS011;54011;50.772;7.730;2022-11-18T15:57:00;6.45;;;2.80;;
67092;SDS011;54011;50.772;7.730;2022-11-18T15:59:27;9.68;;;3.60;;
67092;SDS011;54011;50.772;7.730;2022-11-18T16:01:53;10.10;;;4.50;;
67092;SDS011;54011;50.772;7.730;2022-11-18T16:04:19;7.47;;;2.65;;
67092;SDS011;54011;50.772;7.730;2022-11-18T16:06:46;5.15;;;2.50;;
67092;SDS011;54011;50.772;7.730;2022-11-18T16:09:12;11.30;;;4.57;;
67092;SDS011;54011;50.772;7.730;2022-11-18T16:11:38;7.88;;;3.33;;
67092;SDS011;54011;50.772;7.730;2022-11-18T16:14:24;24.50;;;12.48;;
67092;SDS011;54011;50.772;7.730;2022-11-18T16:16:50;9.85;;;4.13;;
67092;SDS011;54011;50.772;7.730;2022-11-18T16:19:20;15.45;;;7.53;;
67092;SDS011;54011;50.772;7.730;2022-11-18T16:21:49;6.30;;;3.47;;
67092;SDS011;54011;50.772;7.730;2022-11-18T16:24:18;10.60;;;5.80;;
67092;SDS011;54011;50.772;7.730;2022-11-18T16:26:48;7.07;;;3.70;;
67092;SDS011;54011;50.772;7.730;2022-11-18T16:29:15;6.18;;;3.00;;
67092;SDS011;54011;50.772;7.730;2022-11-18T16:31:43;13.40;;;5.57;;
67092;SDS011;54011;50.772;7.730;2022-11-18T16:36:47;9.75;;;4.88;;